메인 페이지
METAR-TAF:

METAR-TAF

공항 :

뉴캐슬 공항

뉴캐슬, 잉글랜드

위도: 55-02N, 경도: 001-42W, 고도: 81m

현재 날씨관측

예보는 26분 전, 02:20시(UTC)에 발표되었습니다.
7kt
온도 12°C
습도 82%
기압 1015 hPa
시정 10km 이상
고도 1700ft 상공 구름 많음

METAR: EGNT 130220Z 36007KT 9999 BKN017 12/09 Q1015

시각: 03:46 (02:46 UTC)

예보

예보는 3 시간 52분 전, 22:54시(UTC)에 발표되었습니다.
예보 대상 시간: 13일 00시부터 13일 24시까지 (UTC)
북북서6kt
시정 10km 이상
고도 2500ft 상공 구름 보통
확률 40% :
일시적
13일 00시부터 13일 03시까지 (UTC)
고도 1400ft 상공 구름 많음
전환 중
13일 03시부터 13일 06시까지 (UTC)
고도 1200ft 상공 구름 많음
일시적
13일 05시부터 13일 24시까지 (UTC)
시정: 6000m
고도 600ft 상공 구름 많음
약한비, 이슬비
확률 30% :
일시적
13일 08시부터 13일 24시까지 (UTC)
시정: 4000m
고도 400ft 상공 구름 많음
박무, 비, 이슬비,

TAF: EGNT 122254Z 1300/1324 34006KT 9999 SCT025 PROB40 TEMPO 1300/1303 BKN014 BECMG 1303/1306 BKN012 TEMPO 1305/1324 6000 -RADZ BKN006 PROB30 TEMPO 1308/1324 4000 BR RADZ BKN004

4,000개 이상의 공항 관측 자료 및 예보 (METAR 및 TAF 보고).

지도상에서 검색 가능한 기상관측소가 노란 점과 빨간 점으로 표시되어 있습니다.

기상관측소 명을 보려면 표시 위로 마우스를 이동하세요.

날씨 관측과 예보를 보려면 클릭하세요.

지도 변경 : 확대하려면 엑스 표시가 있는 녹색 버튼, 축소하려면 빼기 표시가 있는 녹색 버튼, 다음 페이지의 지도를 보려면 녹색 화살표를 클릭하세요.


METAR-TAF: